sensor_id;sensor_type;location;lat;lon;timestamp;temperature;humidity
12223;DHT22;6174;49.058;8.524;2022-08-01T00:01:45;22.80;68.70
12223;DHT22;6174;49.058;8.524;2022-08-01T00:04:12;22.70;69.20
12223;DHT22;6174;49.058;8.524;2022-08-01T00:06:39;22.70;69.50
12223;DHT22;6174;49.058;8.524;2022-08-01T00:09:06;22.60;70.10
12223;DHT22;6174;49.058;8.524;2022-08-01T00:11:32;22.50;70.20
12223;DHT22;6174;49.058;8.524;2022-08-01T00:14:00;22.50;70.90
12223;DHT22;6174;49.058;8.524;2022-08-01T00:16:27;22.40;70.60
12223;DHT22;6174;49.058;8.524;2022-08-01T00:18:54;22.40;71.00
12223;DHT22;6174;49.058;8.524;2022-08-01T00:21:21;22.40;71.30
12223;DHT22;6174;49.058;8.524;2022-08-01T00:23:48;22.30;71.80
12223;DHT22;6174;49.058;8.524;2022-08-01T00:26:15;22.30;71.80
12223;DHT22;6174;49.058;8.524;2022-08-01T00:28:42;22.30;72.30
12223;DHT22;6174;49.058;8.524;2022-08-01T00:31:10;22.30;73.10
12223;DHT22;6174;49.058;8.524;2022-08-01T00:33:36;22.20;72.80
12223;DHT22;6174;49.058;8.524;2022-08-01T00:36:03;22.20;73.00
12223;DHT22;6174;49.058;8.524;2022-08-01T00:38:30;22.20;73.40
12223;DHT22;6174;49.058;8.524;2022-08-01T00:40:57;22.30;73.70
12223;DHT22;6174;49.058;8.524;2022-08-01T00:43:24;22.30;73.60
12223;DHT22;6174;49.058;8.524;2022-08-01T00:45:51;22.30;73.90
12223;DHT22;6174;49.058;8.524;2022-08-01T00:48:19;22.30;73.90
12223;DHT22;6174;49.058;8.524;2022-08-01T00:50:46;22.30;73.90
12223;DHT22;6174;49.058;8.524;2022-08-01T00:53:13;22.30;74.10
12223;DHT22;6174;49.058;8.524;2022-08-01T00:55:40;22.30;74.00
12223;DHT22;6174;49.058;8.524;2022-08-01T00:58:07;22.20;74.10
12223;DHT22;6174;49.058;8.524;2022-08-01T01:00:34;22.20;74.30
12223;DHT22;6174;49.058;8.524;2022-08-01T01:03:02;22.20;74.50
12223;DHT22;6174;49.058;8.524;2022-08-01T01:05:33;22.10;74.60
12223;DHT22;6174;49.058;8.524;2022-08-01T01:08:04;22.10;74.60
12223;DHT22;6174;49.058;8.524;2022-08-01T01:10:39;22.00;74.80
12223;DHT22;6174;49.058;8.524;2022-08-01T01:13:09;22.00;75.20
12223;DHT22;6174;49.058;8.524;2022-08-01T01:15:51;22.00;75.40
12223;DHT22;6174;49.058;8.524;2022-08-01T01:18:23;21.90;75.30
12223;DHT22;6174;49.058;8.524;2022-08-01T01:20:58;21.80;76.40
12223;DHT22;6174;49.058;8.524;2022-08-01T01:23:40;21.80;77.40
12223;DHT22;6174;49.058;8.524;2022-08-01T01:26:38;21.80;76.70
12223;DHT22;6174;49.058;8.524;2022-08-01T01:29:13;21.70;76.90
12223;DHT22;6174;49.058;8.524;2022-08-01T01:31:44;21.70;77.00
12223;DHT22;6174;49.058;8.524;2022-08-01T01:34:13;21.70;76.90
12223;DHT22;6174;49.058;8.524;2022-08-01T01:36:44;21.70;77.40
12223;DHT22;6174;49.058;8.524;2022-08-01T01:39:13;21.60;77.50
12223;DHT22;6174;49.058;8.524;2022-08-01T01:41:41;21.60;77.90
12223;DHT22;6174;49.058;8.524;2022-08-01T01:44:10;21.60;78.30
12223;DHT22;6174;49.058;8.524;2022-08-01T01:46:39;21.60;78.50
12223;DHT22;6174;49.058;8.524;2022-08-01T01:49:07;21.50;78.50
12223;DHT22;6174;49.058;8.524;2022-08-01T01:51:36;21.50;79.00
12223;DHT22;6174;49.058;8.524;2022-08-01T01:54:04;21.60;79.40
12223;DHT22;6174;49.058;8.524;2022-08-01T01:56:31;21.50;79.60
12223;DHT22;6174;49.058;8.524;2022-08-01T01:59:01;21.50;80.10
12223;DHT22;6174;49.058;8.524;2022-08-01T02:01:32;21.60;80.10
12223;DHT22;6174;49.058;8.524;2022-08-01T02:04:01;21.40;80.30
12223;DHT22;6174;49.058;8.524;2022-08-01T02:06:29;21.40;80.30
12223;DHT22;6174;49.058;8.524;2022-08-01T02:08:58;21.30;80.60
12223;DHT22;6174;49.058;8.524;2022-08-01T02:11:26;21.30;80.50
12223;DHT22;6174;49.058;8.524;2022-08-01T02:13:59;21.30;81.00
12223;DHT22;6174;49.058;8.524;2022-08-01T02:16:31;21.30;81.00
12223;DHT22;6174;49.058;8.524;2022-08-01T02:19:00;21.30;81.20
12223;DHT22;6174;49.058;8.524;2022-08-01T02:21:29;21.20;81.30
12223;DHT22;6174;49.058;8.524;2022-08-01T02:24:01;21.40;81.80
12223;DHT22;6174;49.058;8.524;2022-08-01T02:26:30;21.20;81.90
12223;DHT22;6174;49.058;8.524;2022-08-01T02:29:04;21.20;81.70
12223;DHT22;6174;49.058;8.524;2022-08-01T02:31:37;21.20;81.90
12223;DHT22;6174;49.058;8.524;2022-08-01T02:34:07;21.20;81.70
12223;DHT22;6174;49.058;8.524;2022-08-01T02:36:37;21.20;82.10
12223;DHT22;6174;49.058;8.524;2022-08-01T02:39:08;21.10;83.00
12223;DHT22;6174;49.058;8.524;2022-08-01T02:41:39;21.10;82.30
12223;DHT22;6174;49.058;8.524;2022-08-01T02:44:10;21.20;83.10
12223;DHT22;6174;49.058;8.524;2022-08-01T02:46:41;21.10;83.80
12223;DHT22;6174;49.058;8.524;2022-08-01T02:49:11;21.00;84.00
12223;DHT22;6174;49.058;8.524;2022-08-01T02:51:39;21.10;85.10
12223;DHT22;6174;49.058;8.524;2022-08-01T02:54:08;21.10;84.70
12223;DHT22;6174;49.058;8.524;2022-08-01T02:56:37;21.10;84.70
12223;DHT22;6174;49.058;8.524;2022-08-01T02:59:08;21.00;84.60
12223;DHT22;6174;49.058;8.524;2022-08-01T03:01:39;21.00;84.30
12223;DHT22;6174;49.058;8.524;2022-08-01T03:04:07;21.10;84.20
12223;DHT22;6174;49.058;8.524;2022-08-01T03:06:35;21.10;84.60
12223;DHT22;6174;49.058;8.524;2022-08-01T03:09:03;21.10;84.20
12223;DHT22;6174;49.058;8.524;2022-08-01T03:11:32;21.10;84.40
12223;DHT22;6174;49.058;8.524;2022-08-01T03:14:02;21.10;84.00
12223;DHT22;6174;49.058;8.524;2022-08-01T03:16:33;21.10;84.50
12223;DHT22;6174;49.058;8.524;2022-08-01T03:19:03;21.20;85.10
12223;DHT22;6174;49.058;8.524;2022-08-01T03:21:32;21.20;85.40
12223;DHT22;6174;49.058;8.524;2022-08-01T03:24:00;21.20;85.70
12223;DHT22;6174;49.058;8.524;2022-08-01T03:26:30;21.20;85.90
12223;DHT22;6174;49.058;8.524;2022-08-01T03:29:02;21.10;86.10
12223;DHT22;6174;49.058;8.524;2022-08-01T03:31:33;21.10;86.50
12223;DHT22;6174;49.058;8.524;2022-08-01T03:34:00;21.00;86.50
12223;DHT22;6174;49.058;8.524;2022-08-01T03:36:30;21.00;87.00
12223;DHT22;6174;49.058;8.524;2022-08-01T03:39:00;20.90;87.30
12223;DHT22;6174;49.058;8.524;2022-08-01T03:41:32;20.90;87.70
12223;DHT22;6174;49.058;8.524;2022-08-01T03:44:03;20.90;87.70
12223;DHT22;6174;49.058;8.524;2022-08-01T03:46:36;20.90;87.60
12223;DHT22;6174;49.058;8.524;2022-08-01T03:49:11;21.10;87.00
12223;DHT22;6174;49.058;8.524;2022-08-01T03:51:43;20.80;87.10
12223;DHT22;6174;49.058;8.524;2022-08-01T03:54:14;20.80;87.30
12223;DHT22;6174;49.058;8.524;2022-08-01T03:56:43;20.90;87.40
12223;DHT22;6174;49.058;8.524;2022-08-01T03:59:14;20.80;87.70
12223;DHT22;6174;49.058;8.524;2022-08-01T04:01:41;20.90;87.90
12223;DHT22;6174;49.058;8.524;2022-08-01T04:04:08;20.90;87.70
12223;DHT22;6174;49.058;8.524;2022-08-01T04:06:37;20.90;88.10
12223;DHT22;6174;49.058;8.524;2022-08-01T04:09:06;20.90;87.90
12223;DHT22;6174;49.058;8.524;2022-08-01T04:11:34;20.90;88.50
12223;DHT22;6174;49.058;8.524;2022-08-01T04:14:01;20.90;88.10
12223;DHT22;6174;49.058;8.524;2022-08-01T04:16:28;20.90;87.80
12223;DHT22;6174;49.058;8.524;2022-08-01T04:18:55;20.90;88.00
12223;DHT22;6174;49.058;8.524;2022-08-01T04:21:25;20.90;87.90
12223;DHT22;6174;49.058;8.524;2022-08-01T04:23:56;20.90;88.00
12223;DHT22;6174;49.058;8.524;2022-08-01T04:26:25;21.00;87.60
12223;DHT22;6174;49.058;8.524;2022-08-01T04:28:55;21.00;87.70
12223;DHT22;6174;49.058;8.524;2022-08-01T04:31:23;21.00;87.50
12223;DHT22;6174;49.058;8.524;2022-08-01T04:33:53;21.00;87.50
12223;DHT22;6174;49.058;8.524;2022-08-01T04:36:23;21.00;87.40
12223;DHT22;6174;49.058;8.524;2022-08-01T04:38:54;21.00;87.50
12223;DHT22;6174;49.058;8.524;2022-08-01T04:41:22;21.00;87.40
12223;DHT22;6174;49.058;8.524;2022-08-01T04:43:51;21.10;88.00
12223;DHT22;6174;49.058;8.524;2022-08-01T04:46:20;21.00;88.00
12223;DHT22;6174;49.058;8.524;2022-08-01T04:48:47;21.00;88.20
12223;DHT22;6174;49.058;8.524;2022-08-01T04:51:15;21.00;88.80
12223;DHT22;6174;49.058;8.524;2022-08-01T04:53:42;21.00;88.60
12223;DHT22;6174;49.058;8.524;2022-08-01T04:56:11;21.10;89.50
12223;DHT22;6174;49.058;8.524;2022-08-01T04:58:38;21.10;89.70
12223;DHT22;6174;49.058;8.524;2022-08-01T05:01:07;21.10;90.00
12223;DHT22;6174;49.058;8.524;2022-08-01T05:03:34;21.10;90.10
12223;DHT22;6174;49.058;8.524;2022-08-01T05:06:01;21.10;90.00
12223;DHT22;6174;49.058;8.524;2022-08-01T05:08:28;21.10;90.30
12223;DHT22;6174;49.058;8.524;2022-08-01T05:10:55;21.10;90.40
12223;DHT22;6174;49.058;8.524;2022-08-01T05:13:22;21.20;90.40
12223;DHT22;6174;49.058;8.524;2022-08-01T05:15:49;21.20;90.30
12223;DHT22;6174;49.058;8.524;2022-08-01T05:18:17;21.20;90.30
12223;DHT22;6174;49.058;8.524;2022-08-01T05:20:44;21.20;90.60
12223;DHT22;6174;49.058;8.524;2022-08-01T05:23:10;21.30;90.60
12223;DHT22;6174;49.058;8.524;2022-08-01T05:25:37;21.30;90.40
12223;DHT22;6174;49.058;8.524;2022-08-01T05:28:05;21.30;90.80
12223;DHT22;6174;49.058;8.524;2022-08-01T05:30:32;21.40;90.30
12223;DHT22;6174;49.058;8.524;2022-08-01T05:32:58;21.40;90.60
12223;DHT22;6174;49.058;8.524;2022-08-01T05:35:26;21.50;90.40
12223;DHT22;6174;49.058;8.524;2022-08-01T05:37:53;21.50;90.20
12223;DHT22;6174;49.058;8.524;2022-08-01T05:40:20;21.60;90.10
12223;DHT22;6174;49.058;8.524;2022-08-01T05:42:47;21.60;90.30
12223;DHT22;6174;49.058;8.524;2022-08-01T05:45:13;21.80;90.30
12223;DHT22;6174;49.058;8.524;2022-08-01T05:47:40;21.80;89.70
12223;DHT22;6174;49.058;8.524;2022-08-01T05:50:08;21.90;89.60
12223;DHT22;6174;49.058;8.524;2022-08-01T05:52:36;22.00;88.50
12223;DHT22;6174;49.058;8.524;2022-08-01T05:55:04;22.20;87.70
12223;DHT22;6174;49.058;8.524;2022-08-01T05:57:31;22.20;88.20
12223;DHT22;6174;49.058;8.524;2022-08-01T05:59:58;22.30;88.10
12223;DHT22;6174;49.058;8.524;2022-08-01T06:02:24;22.30;88.00
12223;DHT22;6174;49.058;8.524;2022-08-01T06:04:51;22.40;87.50
12223;DHT22;6174;49.058;8.524;2022-08-01T06:07:18;22.50;87.30
12223;DHT22;6174;49.058;8.524;2022-08-01T06:09:46;22.50;88.30
12223;DHT22;6174;49.058;8.524;2022-08-01T06:12:13;22.60;87.40
12223;DHT22;6174;49.058;8.524;2022-08-01T06:14:39;22.70;86.50
12223;DHT22;6174;49.058;8.524;2022-08-01T06:17:06;22.70;86.50
12223;DHT22;6174;49.058;8.524;2022-08-01T06:19:33;22.70;87.10
12223;DHT22;6174;49.058;8.524;2022-08-01T06:22:00;22.70;86.80
12223;DHT22;6174;49.058;8.524;2022-08-01T06:24:26;22.80;87.10
12223;DHT22;6174;49.058;8.524;2022-08-01T06:26:55;22.80;86.40
12223;DHT22;6174;49.058;8.524;2022-08-01T06:29:21;22.80;86.50
12223;DHT22;6174;49.058;8.524;2022-08-01T06:31:48;22.90;86.60
12223;DHT22;6174;49.058;8.524;2022-08-01T06:34:15;23.00;86.20
12223;DHT22;6174;49.058;8.524;2022-08-01T06:36:42;23.00;86.50
12223;DHT22;6174;49.058;8.524;2022-08-01T06:39:08;23.10;86.10
12223;DHT22;6174;49.058;8.524;2022-08-01T06:41:35;23.20;86.10
12223;DHT22;6174;49.058;8.524;2022-08-01T06:44:04;23.30;85.60
12223;DHT22;6174;49.058;8.524;2022-08-01T06:46:31;23.50;84.90
12223;DHT22;6174;49.058;8.524;2022-08-01T06:48:58;23.60;84.00
12223;DHT22;6174;49.058;8.524;2022-08-01T06:51:25;23.70;84.00
12223;DHT22;6174;49.058;8.524;2022-08-01T06:53:51;23.90;84.00
12223;DHT22;6174;49.058;8.524;2022-08-01T06:56:19;24.00;82.90
12223;DHT22;6174;49.058;8.524;2022-08-01T06:58:46;24.10;82.00
12223;DHT22;6174;49.058;8.524;2022-08-01T07:01:14;24.30;81.80
12223;DHT22;6174;49.058;8.524;2022-08-01T07:03:41;24.30;81.40
12223;DHT22;6174;49.058;8.524;2022-08-01T07:06:07;24.40;81.00
12223;DHT22;6174;49.058;8.524;2022-08-01T07:08:35;24.50;79.40
12223;DHT22;6174;49.058;8.524;2022-08-01T07:11:01;24.30;79.60
12223;DHT22;6174;49.058;8.524;2022-08-01T07:13:28;24.30;80.60
12223;DHT22;6174;49.058;8.524;2022-08-01T07:15:57;24.30;79.80
12223;DHT22;6174;49.058;8.524;2022-08-01T07:18:25;24.40;80.10
12223;DHT22;6174;49.058;8.524;2022-08-01T07:20:52;24.50;79.30
12223;DHT22;6174;49.058;8.524;2022-08-01T07:23:18;24.60;77.60
12223;DHT22;6174;49.058;8.524;2022-08-01T07:25:45;24.70;78.20
12223;DHT22;6174;49.058;8.524;2022-08-01T07:28:14;24.80;77.30
12223;DHT22;6174;49.058;8.524;2022-08-01T07:30:40;25.00;76.40
12223;DHT22;6174;49.058;8.524;2022-08-01T07:33:10;25.00;75.50
12223;DHT22;6174;49.058;8.524;2022-08-01T07:35:38;24.90;76.60
12223;DHT22;6174;49.058;8.524;2022-08-01T07:38:05;24.80;77.10
12223;DHT22;6174;49.058;8.524;2022-08-01T07:40:32;24.80;77.80
12223;DHT22;6174;49.058;8.524;2022-08-01T07:42:59;24.80;78.60
12223;DHT22;6174;49.058;8.524;2022-08-01T07:45:25;24.60;77.10
12223;DHT22;6174;49.058;8.524;2022-08-01T07:47:53;24.50;77.90
12223;DHT22;6174;49.058;8.524;2022-08-01T07:50:20;24.40;78.60
12223;DHT22;6174;49.058;8.524;2022-08-01T07:52:48;24.30;79.50
12223;DHT22;6174;49.058;8.524;2022-08-01T07:55:15;24.30;78.60
12223;DHT22;6174;49.058;8.524;2022-08-01T07:57:42;24.30;78.80
12223;DHT22;6174;49.058;8.524;2022-08-01T08:00:09;24.30;79.40
12223;DHT22;6174;49.058;8.524;2022-08-01T08:02:36;24.40;78.50
12223;DHT22;6174;49.058;8.524;2022-08-01T08:05:03;24.40;78.10
12223;DHT22;6174;49.058;8.524;2022-08-01T08:07:32;24.30;77.80
12223;DHT22;6174;49.058;8.524;2022-08-01T08:10:01;24.40;78.50
12223;DHT22;6174;49.058;8.524;2022-08-01T08:12:28;24.30;77.50
12223;DHT22;6174;49.058;8.524;2022-08-01T08:14:55;24.40;76.20
12223;DHT22;6174;49.058;8.524;2022-08-01T08:17:23;24.40;77.20
12223;DHT22;6174;49.058;8.524;2022-08-01T08:19:50;24.40;76.90
12223;DHT22;6174;49.058;8.524;2022-08-01T08:22:17;24.40;76.80
12223;DHT22;6174;49.058;8.524;2022-08-01T08:24:58;24.50;76.20
12223;DHT22;6174;49.058;8.524;2022-08-01T08:27:26;24.50;76.90
12223;DHT22;6174;49.058;8.524;2022-08-01T08:29:53;24.50;77.20
12223;DHT22;6174;49.058;8.524;2022-08-01T08:32:20;24.60;77.80
12223;DHT22;6174;49.058;8.524;2022-08-01T08:34:47;24.60;77.80
12223;DHT22;6174;49.058;8.524;2022-08-01T08:37:14;24.60;77.20
12223;DHT22;6174;49.058;8.524;2022-08-01T08:39:40;24.60;76.90
12223;DHT22;6174;49.058;8.524;2022-08-01T08:42:08;24.60;77.10
12223;DHT22;6174;49.058;8.524;2022-08-01T08:44:37;24.60;77.00
12223;DHT22;6174;49.058;8.524;2022-08-01T08:47:05;24.60;76.70
12223;DHT22;6174;49.058;8.524;2022-08-01T08:49:34;24.60;76.30
12223;DHT22;6174;49.058;8.524;2022-08-01T08:52:02;24.60;77.10
12223;DHT22;6174;49.058;8.524;2022-08-01T08:54:31;24.60;77.10
12223;DHT22;6174;49.058;8.524;2022-08-01T08:57:00;24.60;76.70
12223;DHT22;6174;49.058;8.524;2022-08-01T08:59:27;24.80;78.10
12223;DHT22;6174;49.058;8.524;2022-08-01T09:01:56;24.80;77.30
12223;DHT22;6174;49.058;8.524;2022-08-01T09:04:23;24.90;76.00
12223;DHT22;6174;49.058;8.524;2022-08-01T09:06:51;25.00;77.10
12223;DHT22;6174;49.058;8.524;2022-08-01T09:09:17;25.00;77.60
12223;DHT22;6174;49.058;8.524;2022-08-01T09:11:44;25.00;75.80
12223;DHT22;6174;49.058;8.524;2022-08-01T09:14:12;25.00;76.10
12223;DHT22;6174;49.058;8.524;2022-08-01T09:16:41;25.00;76.70
12223;DHT22;6174;49.058;8.524;2022-08-01T09:19:12;25.10;76.10
12223;DHT22;6174;49.058;8.524;2022-08-01T09:21:40;25.10;77.00
12223;DHT22;6174;49.058;8.524;2022-08-01T09:24:21;25.00;75.90
12223;DHT22;6174;49.058;8.524;2022-08-01T09:26:48;25.10;75.90
12223;DHT22;6174;49.058;8.524;2022-08-01T09:29:21;25.10;75.80
12223;DHT22;6174;49.058;8.524;2022-08-01T09:31:48;25.10;77.70
12223;DHT22;6174;49.058;8.524;2022-08-01T09:34:24;25.10;77.00
12223;DHT22;6174;49.058;8.524;2022-08-01T09:36:52;25.00;76.10
12223;DHT22;6174;49.058;8.524;2022-08-01T09:39:22;25.00;78.20
12223;DHT22;6174;49.058;8.524;2022-08-01T09:41:49;25.00;75.90
12223;DHT22;6174;49.058;8.524;2022-08-01T09:44:17;25.10;76.90
12223;DHT22;6174;49.058;8.524;2022-08-01T09:46:50;25.20;76.40
12223;DHT22;6174;49.058;8.524;2022-08-01T09:49:29;25.30;75.30
12223;DHT22;6174;49.058;8.524;2022-08-01T09:51:58;25.40;74.90
12223;DHT22;6174;49.058;8.524;2022-08-01T09:54:30;25.40;74.70
12223;DHT22;6174;49.058;8.524;2022-08-01T09:57:14;25.30;75.00
12223;DHT22;6174;49.058;8.524;2022-08-01T10:00:04;25.30;75.50
12223;DHT22;6174;49.058;8.524;2022-08-01T10:02:32;25.30;76.70
12223;DHT22;6174;49.058;8.524;2022-08-01T10:05:02;25.30;76.90
12223;DHT22;6174;49.058;8.524;2022-08-01T10:07:29;25.40;75.50
12223;DHT22;6174;49.058;8.524;2022-08-01T10:09:56;25.50;74.70
12223;DHT22;6174;49.058;8.524;2022-08-01T10:12:35;25.50;73.90
12223;DHT22;6174;49.058;8.524;2022-08-01T10:15:03;25.50;73.60
12223;DHT22;6174;49.058;8.524;2022-08-01T10:17:30;25.60;72.40
12223;DHT22;6174;49.058;8.524;2022-08-01T10:20:01;25.60;72.50
12223;DHT22;6174;49.058;8.524;2022-08-01T10:22:30;25.70;72.60
12223;DHT22;6174;49.058;8.524;2022-08-01T10:25:06;25.70;72.60
12223;DHT22;6174;49.058;8.524;2022-08-01T10:27:35;25.60;72.80
12223;DHT22;6174;49.058;8.524;2022-08-01T10:30:11;25.70;73.40
12223;DHT22;6174;49.058;8.524;2022-08-01T10:32:39;25.80;73.60
12223;DHT22;6174;49.058;8.524;2022-08-01T10:35:09;25.80;72.50
12223;DHT22;6174;49.058;8.524;2022-08-01T10:37:41;25.90;72.60
12223;DHT22;6174;49.058;8.524;2022-08-01T10:40:09;26.00;73.50
12223;DHT22;6174;49.058;8.524;2022-08-01T10:42:39;26.10;72.20
12223;DHT22;6174;49.058;8.524;2022-08-01T10:45:07;26.30;72.80
12223;DHT22;6174;49.058;8.524;2022-08-01T10:47:42;26.50;71.10
12223;DHT22;6174;49.058;8.524;2022-08-01T10:50:15;26.50;70.30
12223;DHT22;6174;49.058;8.524;2022-08-01T10:53:12;26.60;70.20
12223;DHT22;6174;49.058;8.524;2022-08-01T10:55:46;26.70;69.30
12223;DHT22;6174;49.058;8.524;2022-08-01T10:58:13;26.70;69.00
12223;DHT22;6174;49.058;8.524;2022-08-01T11:00:40;26.70;70.30
12223;DHT22;6174;49.058;8.524;2022-08-01T11:03:07;26.90;68.60
12223;DHT22;6174;49.058;8.524;2022-08-01T11:05:35;27.00;66.90
12223;DHT22;6174;49.058;8.524;2022-08-01T11:08:05;27.00;68.00
12223;DHT22;6174;49.058;8.524;2022-08-01T11:10:37;27.10;66.80
12223;DHT22;6174;49.058;8.524;2022-08-01T11:13:04;27.30;67.30
12223;DHT22;6174;49.058;8.524;2022-08-01T11:15:33;27.40;67.40
12223;DHT22;6174;49.058;8.524;2022-08-01T11:18:01;27.40;66.20
12223;DHT22;6174;49.058;8.524;2022-08-01T11:20:31;27.40;66.40
12223;DHT22;6174;49.058;8.524;2022-08-01T11:23:33;27.40;66.40
12223;DHT22;6174;49.058;8.524;2022-08-01T11:26:14;27.40;67.60
12223;DHT22;6174;49.058;8.524;2022-08-01T11:31:34;27.30;67.10
12223;DHT22;6174;49.058;8.524;2022-08-01T11:34:25;27.10;66.70
12223;DHT22;6174;49.058;8.524;2022-08-01T11:37:23;27.00;67.80
12223;DHT22;6174;49.058;8.524;2022-08-01T11:40:16;26.80;68.60
12223;DHT22;6174;49.058;8.524;2022-08-01T11:42:46;26.60;68.20
12223;DHT22;6174;49.058;8.524;2022-08-01T11:45:17;26.60;68.40
12223;DHT22;6174;49.058;8.524;2022-08-01T11:47:48;26.60;68.10
12223;DHT22;6174;49.058;8.524;2022-08-01T11:53:11;26.80;68.60
12223;DHT22;6174;49.058;8.524;2022-08-01T11:55:45;26.80;68.90
12223;DHT22;6174;49.058;8.524;2022-08-01T11:58:14;26.90;68.80
12223;DHT22;6174;49.058;8.524;2022-08-01T12:00:53;26.90;67.90
12223;DHT22;6174;49.058;8.524;2022-08-01T12:03:27;27.00;66.20
12223;DHT22;6174;49.058;8.524;2022-08-01T12:05:54;26.90;65.80
12223;DHT22;6174;49.058;8.524;2022-08-01T12:08:28;26.90;66.50
12223;DHT22;6174;49.058;8.524;2022-08-01T12:10:57;27.10;66.40
12223;DHT22;6174;49.058;8.524;2022-08-01T12:13:23;27.30;67.80
12223;DHT22;6174;49.058;8.524;2022-08-01T12:15:50;27.40;65.20
12223;DHT22;6174;49.058;8.524;2022-08-01T12:18:17;27.60;66.00
12223;DHT22;6174;49.058;8.524;2022-08-01T12:20:46;27.80;65.80
12223;DHT22;6174;49.058;8.524;2022-08-01T12:23:15;28.00;66.30
12223;DHT22;6174;49.058;8.524;2022-08-01T12:25:42;28.10;64.20
12223;DHT22;6174;49.058;8.524;2022-08-01T12:28:11;28.10;62.60
12223;DHT22;6174;49.058;8.524;2022-08-01T12:30:39;28.10;62.10
12223;DHT22;6174;49.058;8.524;2022-08-01T12:33:09;28.10;62.60
12223;DHT22;6174;49.058;8.524;2022-08-01T12:35:37;28.00;63.30
12223;DHT22;6174;49.058;8.524;2022-08-01T12:38:06;27.90;63.10
12223;DHT22;6174;49.058;8.524;2022-08-01T12:40:40;27.90;64.40
12223;DHT22;6174;49.058;8.524;2022-08-01T12:43:09;27.90;62.60
12223;DHT22;6174;49.058;8.524;2022-08-01T12:45:40;27.70;62.80
12223;DHT22;6174;49.058;8.524;2022-08-01T12:48:10;27.60;62.90
12223;DHT22;6174;49.058;8.524;2022-08-01T12:50:39;27.60;63.30
12223;DHT22;6174;49.058;8.524;2022-08-01T12:53:08;27.70;62.50
12223;DHT22;6174;49.058;8.524;2022-08-01T12:55:44;27.90;63.80
12223;DHT22;6174;49.058;8.524;2022-08-01T12:58:13;28.00;62.10
12223;DHT22;6174;49.058;8.524;2022-08-01T13:00:43;28.00;63.00
12223;DHT22;6174;49.058;8.524;2022-08-01T13:03:12;28.00;61.60
12223;DHT22;6174;49.058;8.524;2022-08-01T13:05:44;28.00;61.40
12223;DHT22;6174;49.058;8.524;2022-08-01T13:08:11;27.90;62.50
12223;DHT22;6174;49.058;8.524;2022-08-01T13:10:39;28.10;62.70
12223;DHT22;6174;49.058;8.524;2022-08-01T13:13:07;28.20;59.90
12223;DHT22;6174;49.058;8.524;2022-08-01T13:15:35;28.30;59.60
12223;DHT22;6174;49.058;8.524;2022-08-01T13:18:24;28.20;59.50
12223;DHT22;6174;49.058;8.524;2022-08-01T13:21:07;28.20;59.80
12223;DHT22;6174;49.058;8.524;2022-08-01T13:23:34;28.30;60.70
12223;DHT22;6174;49.058;8.524;2022-08-01T13:26:01;28.30;59.30
12223;DHT22;6174;49.058;8.524;2022-08-01T13:28:28;28.40;60.00
12223;DHT22;6174;49.058;8.524;2022-08-01T13:30:58;28.40;60.00
12223;DHT22;6174;49.058;8.524;2022-08-01T13:33:38;28.60;59.30
12223;DHT22;6174;49.058;8.524;2022-08-01T13:36:06;28.80;59.10
12223;DHT22;6174;49.058;8.524;2022-08-01T13:38:33;28.80;58.10
12223;DHT22;6174;49.058;8.524;2022-08-01T13:41:17;28.80;58.40
12223;DHT22;6174;49.058;8.524;2022-08-01T13:43:44;28.70;58.50
12223;DHT22;6174;49.058;8.524;2022-08-01T13:46:11;28.60;58.00
12223;DHT22;6174;49.058;8.524;2022-08-01T13:48:39;28.50;59.30
12223;DHT22;6174;49.058;8.524;2022-08-01T13:51:06;28.60;58.90
12223;DHT22;6174;49.058;8.524;2022-08-01T13:53:33;28.90;58.60
12223;DHT22;6174;49.058;8.524;2022-08-01T13:56:01;29.00;57.00
12223;DHT22;6174;49.058;8.524;2022-08-01T13:58:27;29.00;57.40
12223;DHT22;6174;49.058;8.524;2022-08-01T14:00:55;28.80;57.60
12223;DHT22;6174;49.058;8.524;2022-08-01T14:03:22;28.70;57.40
12223;DHT22;6174;49.058;8.524;2022-08-01T14:05:50;28.60;58.10
12223;DHT22;6174;49.058;8.524;2022-08-01T14:08:17;28.50;58.60
12223;DHT22;6174;49.058;8.524;2022-08-01T14:10:44;28.50;58.20
12223;DHT22;6174;49.058;8.524;2022-08-01T14:13:10;28.60;58.90
12223;DHT22;6174;49.058;8.524;2022-08-01T14:15:37;28.70;59.40
12223;DHT22;6174;49.058;8.524;2022-08-01T14:18:05;28.80;57.70
12223;DHT22;6174;49.058;8.524;2022-08-01T14:20:32;28.80;57.50
12223;DHT22;6174;49.058;8.524;2022-08-01T14:23:00;28.80;57.50
12223;DHT22;6174;49.058;8.524;2022-08-01T14:25:27;28.70;57.00
12223;DHT22;6174;49.058;8.524;2022-08-01T14:27:54;28.50;58.20
12223;DHT22;6174;49.058;8.524;2022-08-01T14:30:21;28.50;59.20
12223;DHT22;6174;49.058;8.524;2022-08-01T14:32:47;28.40;58.40
12223;DHT22;6174;49.058;8.524;2022-08-01T14:35:14;28.40;58.60
12223;DHT22;6174;49.058;8.524;2022-08-01T14:37:41;28.40;58.20
12223;DHT22;6174;49.058;8.524;2022-08-01T14:40:09;28.60;59.20
12223;DHT22;6174;49.058;8.524;2022-08-01T14:42:38;28.90;58.70
12223;DHT22;6174;49.058;8.524;2022-08-01T14:45:06;29.00;57.30
12223;DHT22;6174;49.058;8.524;2022-08-01T14:47:35;29.00;57.20
12223;DHT22;6174;49.058;8.524;2022-08-01T14:50:03;28.90;57.10
12223;DHT22;6174;49.058;8.524;2022-08-01T14:52:31;28.80;57.60
12223;DHT22;6174;49.058;8.524;2022-08-01T14:54:58;28.70;58.00
12223;DHT22;6174;49.058;8.524;2022-08-01T14:57:26;28.70;58.00
12223;DHT22;6174;49.058;8.524;2022-08-01T14:59:53;28.60;58.60
12223;DHT22;6174;49.058;8.524;2022-08-01T15:02:20;28.60;57.50
12223;DHT22;6174;49.058;8.524;2022-08-01T15:04:48;28.60;58.00
12223;DHT22;6174;49.058;8.524;2022-08-01T15:07:15;28.60;57.70
12223;DHT22;6174;49.058;8.524;2022-08-01T15:09:43;28.40;58.20
12223;DHT22;6174;49.058;8.524;2022-08-01T15:12:10;28.30;58.30
12223;DHT22;6174;49.058;8.524;2022-08-01T15:14:39;28.20;58.50
12223;DHT22;6174;49.058;8.524;2022-08-01T15:17:25;28.10;58.80
12223;DHT22;6174;49.058;8.524;2022-08-01T15:19:55;28.00;59.00
12223;DHT22;6174;49.058;8.524;2022-08-01T15:22:23;27.90;59.40
12223;DHT22;6174;49.058;8.524;2022-08-01T15:24:51;27.90;59.50
12223;DHT22;6174;49.058;8.524;2022-08-01T15:27:19;27.90;59.50
12223;DHT22;6174;49.058;8.524;2022-08-01T15:29:48;27.90;59.60
12223;DHT22;6174;49.058;8.524;2022-08-01T15:32:15;27.90;59.70
12223;DHT22;6174;49.058;8.524;2022-08-01T15:34:42;27.80;59.70
12223;DHT22;6174;49.058;8.524;2022-08-01T15:37:10;27.80;60.20
12223;DHT22;6174;49.058;8.524;2022-08-01T15:39:37;27.80;60.40
12223;DHT22;6174;49.058;8.524;2022-08-01T15:42:08;27.70;60.30
12223;DHT22;6174;49.058;8.524;2022-08-01T15:44:35;27.60;60.40
12223;DHT22;6174;49.058;8.524;2022-08-01T15:47:05;27.60;61.10
12223;DHT22;6174;49.058;8.524;2022-08-01T15:49:32;27.60;61.10
12223;DHT22;6174;49.058;8.524;2022-08-01T15:52:03;27.60;61.30
12223;DHT22;6174;49.058;8.524;2022-08-01T15:54:30;27.60;60.90
12223;DHT22;6174;49.058;8.524;2022-08-01T15:56:57;27.50;60.60
12223;DHT22;6174;49.058;8.524;2022-08-01T15:59:24;27.40;61.30
12223;DHT22;6174;49.058;8.524;2022-08-01T16:01:51;27.40;61.20
12223;DHT22;6174;49.058;8.524;2022-08-01T16:04:19;27.40;61.30